sensor_id;sensor_type;location;lat;lon;timestamp;P1;durP1;ratioP1;P2;durP2;ratioP2
18200;SDS011;9226;47.858;9.594;2023-03-01T00:03:55;31.27;;;12.03;;
18200;SDS011;9226;47.858;9.594;2023-03-01T00:06:22;25.10;;;11.17;;
18200;SDS011;9226;47.858;9.594;2023-03-01T00:08:48;31.07;;;11.80;;
18200;SDS011;9226;47.858;9.594;2023-03-01T00:13:39;31.87;;;12.27;;
18200;SDS011;9226;47.858;9.594;2023-03-01T00:16:07;31.63;;;10.60;;
18200;SDS011;9226;47.858;9.594;2023-03-01T00:18:34;29.10;;;12.33;;
18200;SDS011;9226;47.858;9.594;2023-03-01T00:21:00;28.87;;;11.33;;
18200;SDS011;9226;47.858;9.594;2023-03-01T00:23:26;30.77;;;11.63;;
18200;SDS011;9226;47.858;9.594;2023-03-01T00:25:52;33.27;;;11.97;;
18200;SDS011;9226;47.858;9.594;2023-03-01T00:28:18;27.47;;;11.20;;
18200;SDS011;9226;47.858;9.594;2023-03-01T00:30:44;40.77;;;13.07;;
18200;SDS011;9226;47.858;9.594;2023-03-01T00:33:10;32.23;;;12.17;;
18200;SDS011;9226;47.858;9.594;2023-03-01T00:35:35;31.07;;;11.60;;
18200;SDS011;9226;47.858;9.594;2023-03-01T00:38:01;29.60;;;12.37;;
18200;SDS011;9226;47.858;9.594;2023-03-01T00:40:29;29.73;;;12.20;;
18200;SDS011;9226;47.858;9.594;2023-03-01T00:42:55;29.10;;;12.17;;
18200;SDS011;9226;47.858;9.594;2023-03-01T00:45:21;34.27;;;12.73;;
18200;SDS011;9226;47.858;9.594;2023-03-01T00:47:47;31.67;;;12.27;;
18200;SDS011;9226;47.858;9.594;2023-03-01T00:50:13;27.50;;;11.90;;
18200;SDS011;9226;47.858;9.594;2023-03-01T00:52:39;28.97;;;12.33;;
18200;SDS011;9226;47.858;9.594;2023-03-01T00:55:05;29.73;;;11.50;;
18200;SDS011;9226;47.858;9.594;2023-03-01T00:57:31;33.97;;;12.40;;
18200;SDS011;9226;47.858;9.594;2023-03-01T00:59:56;32.77;;;12.47;;
18200;SDS011;9226;47.858;9.594;2023-03-01T01:02:22;32.57;;;12.23;;
18200;SDS011;9226;47.858;9.594;2023-03-01T01:04:48;32.37;;;11.50;;
18200;SDS011;9226;47.858;9.594;2023-03-01T01:07:13;36.37;;;12.67;;
18200;SDS011;9226;47.858;9.594;2023-03-01T01:09:40;33.93;;;12.20;;
18200;SDS011;9226;47.858;9.594;2023-03-01T01:12:05;34.23;;;12.03;;
18200;SDS011;9226;47.858;9.594;2023-03-01T01:14:31;32.30;;;11.80;;
18200;SDS011;9226;47.858;9.594;2023-03-01T01:16:57;35.93;;;13.60;;
18200;SDS011;9226;47.858;9.594;2023-03-01T01:19:22;32.70;;;12.33;;
18200;SDS011;9226;47.858;9.594;2023-03-01T01:21:48;29.17;;;11.93;;
18200;SDS011;9226;47.858;9.594;2023-03-01T01:24:14;30.57;;;11.67;;
18200;SDS011;9226;47.858;9.594;2023-03-01T01:26:40;31.37;;;12.10;;
18200;SDS011;9226;47.858;9.594;2023-03-01T01:29:06;31.57;;;12.70;;
18200;SDS011;9226;47.858;9.594;2023-03-01T01:31:32;31.53;;;12.27;;
18200;SDS011;9226;47.858;9.594;2023-03-01T01:33:59;32.13;;;12.47;;
18200;SDS011;9226;47.858;9.594;2023-03-01T01:36:26;32.40;;;11.63;;
18200;SDS011;9226;47.858;9.594;2023-03-01T01:38:51;30.73;;;11.23;;
18200;SDS011;9226;47.858;9.594;2023-03-01T01:41:17;30.10;;;11.97;;
18200;SDS011;9226;47.858;9.594;2023-03-01T01:43:44;26.87;;;10.47;;
18200;SDS011;9226;47.858;9.594;2023-03-01T01:46:16;32.93;;;12.17;;
18200;SDS011;9226;47.858;9.594;2023-03-01T01:49:05;29.30;;;11.23;;
18200;SDS011;9226;47.858;9.594;2023-03-01T01:51:43;27.90;;;10.83;;
18200;SDS011;9226;47.858;9.594;2023-03-01T01:54:21;33.67;;;12.63;;
18200;SDS011;9226;47.858;9.594;2023-03-01T01:57:14;29.10;;;11.20;;
18200;SDS011;9226;47.858;9.594;2023-03-01T01:59:48;30.80;;;10.93;;
18200;SDS011;9226;47.858;9.594;2023-03-01T02:02:17;30.63;;;12.03;;
18200;SDS011;9226;47.858;9.594;2023-03-01T02:04:43;32.77;;;12.17;;
18200;SDS011;9226;47.858;9.594;2023-03-01T02:07:15;30.30;;;12.03;;
18200;SDS011;9226;47.858;9.594;2023-03-01T02:09:45;30.70;;;12.27;;
18200;SDS011;9226;47.858;9.594;2023-03-01T02:12:14;30.73;;;12.10;;
18200;SDS011;9226;47.858;9.594;2023-03-01T02:14:42;29.47;;;12.20;;
18200;SDS011;9226;47.858;9.594;2023-03-01T02:17:07;28.87;;;11.83;;
18200;SDS011;9226;47.858;9.594;2023-03-01T02:22:41;33.50;;;11.63;;
18200;SDS011;9226;47.858;9.594;2023-03-01T02:27:48;37.67;;;13.30;;
18200;SDS011;9226;47.858;9.594;2023-03-01T02:30:15;30.27;;;12.40;;
18200;SDS011;9226;47.858;9.594;2023-03-01T02:32:41;33.30;;;12.50;;
18200;SDS011;9226;47.858;9.594;2023-03-01T02:35:10;34.40;;;12.80;;
18200;SDS011;9226;47.858;9.594;2023-03-01T02:37:39;35.53;;;12.70;;
18200;SDS011;9226;47.858;9.594;2023-03-01T02:40:08;29.90;;;11.67;;
18200;SDS011;9226;47.858;9.594;2023-03-01T02:42:41;32.77;;;12.00;;
18200;SDS011;9226;47.858;9.594;2023-03-01T02:45:14;33.63;;;11.90;;
18200;SDS011;9226;47.858;9.594;2023-03-01T02:47:40;32.47;;;12.87;;
18200;SDS011;9226;47.858;9.594;2023-03-01T02:53:02;29.20;;;11.80;;
18200;SDS011;9226;47.858;9.594;2023-03-01T02:55:31;31.53;;;13.20;;
18200;SDS011;9226;47.858;9.594;2023-03-01T02:57:56;32.17;;;12.07;;
18200;SDS011;9226;47.858;9.594;2023-03-01T03:00:26;30.57;;;12.50;;
18200;SDS011;9226;47.858;9.594;2023-03-01T03:02:59;32.87;;;12.03;;
18200;SDS011;9226;47.858;9.594;2023-03-01T03:05:28;33.47;;;12.17;;
18200;SDS011;9226;47.858;9.594;2023-03-01T03:07:55;35.70;;;12.47;;
18200;SDS011;9226;47.858;9.594;2023-03-01T03:10:23;28.87;;;11.93;;
18200;SDS011;9226;47.858;9.594;2023-03-01T03:12:55;32.93;;;12.53;;
18200;SDS011;9226;47.858;9.594;2023-03-01T03:15:25;28.50;;;11.27;;
18200;SDS011;9226;47.858;9.594;2023-03-01T03:17:52;32.33;;;12.43;;
18200;SDS011;9226;47.858;9.594;2023-03-01T03:20:19;33.50;;;12.73;;
18200;SDS011;9226;47.858;9.594;2023-03-01T03:22:50;27.27;;;11.43;;
18200;SDS011;9226;47.858;9.594;2023-03-01T03:25:17;31.20;;;11.73;;
18200;SDS011;9226;47.858;9.594;2023-03-01T03:27:44;31.47;;;12.07;;
18200;SDS011;9226;47.858;9.594;2023-03-01T03:30:11;34.70;;;11.97;;
18200;SDS011;9226;47.858;9.594;2023-03-01T03:32:39;29.70;;;11.93;;
18200;SDS011;9226;47.858;9.594;2023-03-01T03:35:06;30.17;;;11.77;;
18200;SDS011;9226;47.858;9.594;2023-03-01T03:37:37;31.07;;;11.57;;
18200;SDS011;9226;47.858;9.594;2023-03-01T03:40:22;25.53;;;11.20;;
18200;SDS011;9226;47.858;9.594;2023-03-01T03:42:48;36.13;;;13.23;;
18200;SDS011;9226;47.858;9.594;2023-03-01T03:45:13;31.50;;;12.00;;
18200;SDS011;9226;47.858;9.594;2023-03-01T03:47:39;29.80;;;12.30;;
18200;SDS011;9226;47.858;9.594;2023-03-01T03:50:05;31.30;;;12.17;;
18200;SDS011;9226;47.858;9.594;2023-03-01T03:52:30;35.80;;;13.10;;
18200;SDS011;9226;47.858;9.594;2023-03-01T03:54:56;33.80;;;12.73;;
18200;SDS011;9226;47.858;9.594;2023-03-01T03:57:21;28.00;;;12.50;;
18200;SDS011;9226;47.858;9.594;2023-03-01T03:59:46;36.37;;;12.97;;
18200;SDS011;9226;47.858;9.594;2023-03-01T04:02:12;34.33;;;13.83;;
18200;SDS011;9226;47.858;9.594;2023-03-01T04:04:37;35.37;;;11.93;;
18200;SDS011;9226;47.858;9.594;2023-03-01T04:07:02;33.53;;;12.67;;
18200;SDS011;9226;47.858;9.594;2023-03-01T04:09:28;34.90;;;12.47;;
18200;SDS011;9226;47.858;9.594;2023-03-01T04:11:55;34.00;;;13.03;;
18200;SDS011;9226;47.858;9.594;2023-03-01T04:14:20;38.07;;;13.20;;
18200;SDS011;9226;47.858;9.594;2023-03-01T04:16:46;38.00;;;13.47;;
18200;SDS011;9226;47.858;9.594;2023-03-01T04:19:11;29.07;;;12.43;;
18200;SDS011;9226;47.858;9.594;2023-03-01T04:21:36;29.33;;;12.80;;
18200;SDS011;9226;47.858;9.594;2023-03-01T04:24:03;37.43;;;13.40;;
18200;SDS011;9226;47.858;9.594;2023-03-01T04:26:29;35.87;;;13.43;;
18200;SDS011;9226;47.858;9.594;2023-03-01T04:28:54;36.10;;;13.20;;
18200;SDS011;9226;47.858;9.594;2023-03-01T04:31:20;37.63;;;12.87;;
18200;SDS011;9226;47.858;9.594;2023-03-01T04:33:50;36.60;;;13.27;;
18200;SDS011;9226;47.858;9.594;2023-03-01T04:36:21;33.47;;;13.13;;
18200;SDS011;9226;47.858;9.594;2023-03-01T04:38:50;35.53;;;13.10;;
18200;SDS011;9226;47.858;9.594;2023-03-01T04:41:17;35.50;;;13.00;;
18200;SDS011;9226;47.858;9.594;2023-03-01T04:43:44;31.83;;;13.73;;
18200;SDS011;9226;47.858;9.594;2023-03-01T04:46:11;33.30;;;13.47;;
18200;SDS011;9226;47.858;9.594;2023-03-01T04:48:38;31.73;;;13.17;;
18200;SDS011;9226;47.858;9.594;2023-03-01T04:51:05;38.97;;;13.60;;
18200;SDS011;9226;47.858;9.594;2023-03-01T04:53:31;40.90;;;14.03;;
18200;SDS011;9226;47.858;9.594;2023-03-01T04:55:57;34.73;;;13.17;;
18200;SDS011;9226;47.858;9.594;2023-03-01T04:58:24;34.17;;;13.37;;
18200;SDS011;9226;47.858;9.594;2023-03-01T05:00:51;35.77;;;14.03;;
18200;SDS011;9226;47.858;9.594;2023-03-01T05:03:17;32.30;;;13.13;;
18200;SDS011;9226;47.858;9.594;2023-03-01T05:05:44;40.17;;;14.33;;
18200;SDS011;9226;47.858;9.594;2023-03-01T05:08:11;36.70;;;13.87;;
18200;SDS011;9226;47.858;9.594;2023-03-01T05:10:48;34.93;;;13.83;;
18200;SDS011;9226;47.858;9.594;2023-03-01T05:13:15;41.13;;;13.07;;
18200;SDS011;9226;47.858;9.594;2023-03-01T05:15:53;39.07;;;14.17;;
18200;SDS011;9226;47.858;9.594;2023-03-01T05:18:20;37.83;;;13.70;;
18200;SDS011;9226;47.858;9.594;2023-03-01T05:20:45;35.03;;;13.80;;
18200;SDS011;9226;47.858;9.594;2023-03-01T05:23:11;33.13;;;12.80;;
18200;SDS011;9226;47.858;9.594;2023-03-01T05:25:36;36.67;;;13.03;;
18200;SDS011;9226;47.858;9.594;2023-03-01T05:28:05;35.83;;;12.97;;
18200;SDS011;9226;47.858;9.594;2023-03-01T05:30:32;35.93;;;13.37;;
18200;SDS011;9226;47.858;9.594;2023-03-01T05:32:58;33.43;;;12.93;;
18200;SDS011;9226;47.858;9.594;2023-03-01T05:35:24;34.63;;;12.67;;
18200;SDS011;9226;47.858;9.594;2023-03-01T05:37:50;36.70;;;13.73;;
18200;SDS011;9226;47.858;9.594;2023-03-01T05:40:20;42.80;;;15.10;;
18200;SDS011;9226;47.858;9.594;2023-03-01T05:42:49;43.57;;;14.80;;
18200;SDS011;9226;47.858;9.594;2023-03-01T05:45:18;37.80;;;14.27;;
18200;SDS011;9226;47.858;9.594;2023-03-01T05:47:44;35.60;;;14.20;;
18200;SDS011;9226;47.858;9.594;2023-03-01T05:50:15;37.77;;;14.70;;
18200;SDS011;9226;47.858;9.594;2023-03-01T05:52:45;42.60;;;14.67;;
18200;SDS011;9226;47.858;9.594;2023-03-01T05:55:13;39.10;;;14.17;;
18200;SDS011;9226;47.858;9.594;2023-03-01T05:57:39;36.90;;;13.80;;
18200;SDS011;9226;47.858;9.594;2023-03-01T06:00:06;33.00;;;14.30;;
18200;SDS011;9226;47.858;9.594;2023-03-01T06:02:32;32.60;;;12.03;;
18200;SDS011;9226;47.858;9.594;2023-03-01T06:04:57;41.57;;;15.37;;
18200;SDS011;9226;47.858;9.594;2023-03-01T06:07:23;38.13;;;14.07;;
18200;SDS011;9226;47.858;9.594;2023-03-01T06:09:48;41.57;;;15.13;;
18200;SDS011;9226;47.858;9.594;2023-03-01T06:12:14;38.10;;;14.43;;
18200;SDS011;9226;47.858;9.594;2023-03-01T06:14:39;39.97;;;14.27;;
18200;SDS011;9226;47.858;9.594;2023-03-01T06:17:04;40.47;;;14.60;;
18200;SDS011;9226;47.858;9.594;2023-03-01T06:19:30;41.57;;;15.07;;
18200;SDS011;9226;47.858;9.594;2023-03-01T06:21:55;39.03;;;14.07;;
18200;SDS011;9226;47.858;9.594;2023-03-01T06:24:20;40.70;;;13.87;;
18200;SDS011;9226;47.858;9.594;2023-03-01T06:26:46;34.00;;;13.90;;
18200;SDS011;9226;47.858;9.594;2023-03-01T06:29:11;37.07;;;13.90;;
18200;SDS011;9226;47.858;9.594;2023-03-01T06:31:37;36.10;;;14.83;;
18200;SDS011;9226;47.858;9.594;2023-03-01T06:34:02;36.40;;;15.30;;
18200;SDS011;9226;47.858;9.594;2023-03-01T06:36:27;40.57;;;14.70;;
18200;SDS011;9226;47.858;9.594;2023-03-01T06:38:53;33.73;;;14.43;;
18200;SDS011;9226;47.858;9.594;2023-03-01T06:41:18;41.30;;;15.90;;
18200;SDS011;9226;47.858;9.594;2023-03-01T06:43:43;40.23;;;14.07;;
18200;SDS011;9226;47.858;9.594;2023-03-01T06:46:09;40.27;;;14.70;;
18200;SDS011;9226;47.858;9.594;2023-03-01T06:48:34;36.43;;;13.20;;
18200;SDS011;9226;47.858;9.594;2023-03-01T06:51:00;36.67;;;14.10;;
18200;SDS011;9226;47.858;9.594;2023-03-01T06:53:29;40.67;;;14.50;;
18200;SDS011;9226;47.858;9.594;2023-03-01T06:55:57;36.67;;;14.03;;
18200;SDS011;9226;47.858;9.594;2023-03-01T06:58:25;38.03;;;13.47;;
18200;SDS011;9226;47.858;9.594;2023-03-01T07:00:50;33.10;;;13.27;;
18200;SDS011;9226;47.858;9.594;2023-03-01T07:03:16;37.80;;;14.60;;
18200;SDS011;9226;47.858;9.594;2023-03-01T07:05:41;37.13;;;14.63;;
18200;SDS011;9226;47.858;9.594;2023-03-01T07:08:07;42.50;;;14.47;;
18200;SDS011;9226;47.858;9.594;2023-03-01T07:10:33;35.40;;;14.17;;
18200;SDS011;9226;47.858;9.594;2023-03-01T07:12:58;46.87;;;15.67;;
18200;SDS011;9226;47.858;9.594;2023-03-01T07:15:24;40.93;;;14.40;;
18200;SDS011;9226;47.858;9.594;2023-03-01T07:17:50;36.00;;;14.60;;
18200;SDS011;9226;47.858;9.594;2023-03-01T07:20:17;38.53;;;15.33;;
18200;SDS011;9226;47.858;9.594;2023-03-01T07:22:43;37.83;;;14.67;;
18200;SDS011;9226;47.858;9.594;2023-03-01T07:25:09;35.07;;;13.53;;
18200;SDS011;9226;47.858;9.594;2023-03-01T07:27:35;36.57;;;14.67;;
18200;SDS011;9226;47.858;9.594;2023-03-01T07:30:01;39.60;;;13.83;;
18200;SDS011;9226;47.858;9.594;2023-03-01T07:32:26;39.10;;;13.57;;
18200;SDS011;9226;47.858;9.594;2023-03-01T07:34:52;36.40;;;13.57;;
18200;SDS011;9226;47.858;9.594;2023-03-01T07:37:17;35.17;;;13.27;;
18200;SDS011;9226;47.858;9.594;2023-03-01T07:39:42;37.70;;;13.87;;
18200;SDS011;9226;47.858;9.594;2023-03-01T07:42:08;33.53;;;13.17;;
18200;SDS011;9226;47.858;9.594;2023-03-01T07:44:33;38.03;;;13.50;;
18200;SDS011;9226;47.858;9.594;2023-03-01T07:47:02;38.33;;;14.63;;
18200;SDS011;9226;47.858;9.594;2023-03-01T07:49:29;36.57;;;14.70;;
18200;SDS011;9226;47.858;9.594;2023-03-01T07:51:54;35.07;;;13.73;;
18200;SDS011;9226;47.858;9.594;2023-03-01T07:54:20;41.67;;;14.63;;
18200;SDS011;9226;47.858;9.594;2023-03-01T07:56:45;33.50;;;14.60;;
18200;SDS011;9226;47.858;9.594;2023-03-01T07:59:11;37.93;;;14.80;;
18200;SDS011;9226;47.858;9.594;2023-03-01T08:01:36;40.30;;;13.33;;
18200;SDS011;9226;47.858;9.594;2023-03-01T08:04:02;33.77;;;13.33;;
18200;SDS011;9226;47.858;9.594;2023-03-01T08:06:27;39.10;;;14.47;;
18200;SDS011;9226;47.858;9.594;2023-03-01T08:08:52;35.97;;;12.77;;
18200;SDS011;9226;47.858;9.594;2023-03-01T08:11:20;33.07;;;13.10;;
18200;SDS011;9226;47.858;9.594;2023-03-01T08:13:47;38.07;;;14.17;;
18200;SDS011;9226;47.858;9.594;2023-03-01T08:16:14;38.20;;;12.97;;
18200;SDS011;9226;47.858;9.594;2023-03-01T08:18:40;39.47;;;14.00;;
18200;SDS011;9226;47.858;9.594;2023-03-01T08:21:07;38.77;;;13.83;;
18200;SDS011;9226;47.858;9.594;2023-03-01T08:23:34;33.70;;;13.07;;
18200;SDS011;9226;47.858;9.594;2023-03-01T08:26:10;35.07;;;13.53;;
18200;SDS011;9226;47.858;9.594;2023-03-01T08:28:38;29.17;;;12.20;;
18200;SDS011;9226;47.858;9.594;2023-03-01T08:31:18;36.07;;;14.13;;
18200;SDS011;9226;47.858;9.594;2023-03-01T08:33:44;41.70;;;14.70;;
18200;SDS011;9226;47.858;9.594;2023-03-01T08:36:15;37.33;;;13.93;;
18200;SDS011;9226;47.858;9.594;2023-03-01T08:38:42;35.17;;;12.80;;
18200;SDS011;9226;47.858;9.594;2023-03-01T08:41:07;41.83;;;13.87;;
18200;SDS011;9226;47.858;9.594;2023-03-01T08:43:33;36.13;;;13.27;;
18200;SDS011;9226;47.858;9.594;2023-03-01T08:45:58;37.30;;;14.53;;
18200;SDS011;9226;47.858;9.594;2023-03-01T08:48:23;39.37;;;14.13;;
18200;SDS011;9226;47.858;9.594;2023-03-01T08:50:49;37.40;;;14.57;;
18200;SDS011;9226;47.858;9.594;2023-03-01T08:53:14;31.00;;;12.67;;
18200;SDS011;9226;47.858;9.594;2023-03-01T08:55:40;32.17;;;13.30;;
18200;SDS011;9226;47.858;9.594;2023-03-01T08:58:05;40.63;;;14.47;;
18200;SDS011;9226;47.858;9.594;2023-03-01T09:00:30;39.50;;;13.20;;
18200;SDS011;9226;47.858;9.594;2023-03-01T09:02:59;35.00;;;12.97;;
18200;SDS011;9226;47.858;9.594;2023-03-01T09:05:25;37.23;;;13.27;;
18200;SDS011;9226;47.858;9.594;2023-03-01T09:07:50;38.77;;;14.03;;
18200;SDS011;9226;47.858;9.594;2023-03-01T09:10:16;36.50;;;13.97;;
18200;SDS011;9226;47.858;9.594;2023-03-01T09:12:41;39.10;;;14.77;;
18200;SDS011;9226;47.858;9.594;2023-03-01T09:15:07;37.23;;;14.60;;
18200;SDS011;9226;47.858;9.594;2023-03-01T09:17:33;38.20;;;13.47;;
18200;SDS011;9226;47.858;9.594;2023-03-01T09:19:58;37.13;;;13.10;;
18200;SDS011;9226;47.858;9.594;2023-03-01T09:22:24;38.73;;;14.03;;
18200;SDS011;9226;47.858;9.594;2023-03-01T09:24:50;35.60;;;13.90;;
18200;SDS011;9226;47.858;9.594;2023-03-01T09:27:15;39.63;;;14.00;;
18200;SDS011;9226;47.858;9.594;2023-03-01T09:29:43;37.57;;;13.83;;
18200;SDS011;9226;47.858;9.594;2023-03-01T09:32:09;37.77;;;13.70;;
18200;SDS011;9226;47.858;9.594;2023-03-01T09:34:35;37.87;;;14.17;;
18200;SDS011;9226;47.858;9.594;2023-03-01T09:37:23;38.80;;;14.20;;
18200;SDS011;9226;47.858;9.594;2023-03-01T09:39:49;42.47;;;15.43;;
18200;SDS011;9226;47.858;9.594;2023-03-01T09:42:14;36.90;;;13.27;;
18200;SDS011;9226;47.858;9.594;2023-03-01T09:47:18;42.20;;;14.47;;
18200;SDS011;9226;47.858;9.594;2023-03-01T09:49:47;40.83;;;13.73;;
18200;SDS011;9226;47.858;9.594;2023-03-01T09:52:26;35.30;;;13.77;;
18200;SDS011;9226;47.858;9.594;2023-03-01T09:55:00;41.63;;;14.23;;
18200;SDS011;9226;47.858;9.594;2023-03-01T09:57:43;40.80;;;13.93;;
18200;SDS011;9226;47.858;9.594;2023-03-01T10:03:16;43.63;;;15.27;;
18200;SDS011;9226;47.858;9.594;2023-03-01T10:08:40;35.83;;;14.13;;
18200;SDS011;9226;47.858;9.594;2023-03-01T10:11:24;37.50;;;13.80;;
18200;SDS011;9226;47.858;9.594;2023-03-01T10:17:11;40.70;;;13.83;;
18200;SDS011;9226;47.858;9.594;2023-03-01T10:19:44;38.20;;;13.63;;
18200;SDS011;9226;47.858;9.594;2023-03-01T10:24:36;35.10;;;13.93;;
18200;SDS011;9226;47.858;9.594;2023-03-01T10:27:07;38.10;;;14.47;;
18200;SDS011;9226;47.858;9.594;2023-03-01T10:29:45;33.33;;;14.23;;
18200;SDS011;9226;47.858;9.594;2023-03-01T10:32:15;41.63;;;14.03;;
18200;SDS011;9226;47.858;9.594;2023-03-01T10:34:42;37.73;;;14.13;;
18200;SDS011;9226;47.858;9.594;2023-03-01T10:37:14;36.23;;;13.17;;
18200;SDS011;9226;47.858;9.594;2023-03-01T10:40:05;39.10;;;14.97;;
18200;SDS011;9226;47.858;9.594;2023-03-01T10:42:34;36.00;;;15.03;;
18200;SDS011;9226;47.858;9.594;2023-03-01T10:45:28;35.23;;;13.43;;
18200;SDS011;9226;47.858;9.594;2023-03-01T10:50:28;36.97;;;13.97;;
18200;SDS011;9226;47.858;9.594;2023-03-01T10:53:01;40.73;;;14.27;;
18200;SDS011;9226;47.858;9.594;2023-03-01T10:55:36;34.10;;;12.87;;
18200;SDS011;9226;47.858;9.594;2023-03-01T11:00:45;37.33;;;14.40;;
18200;SDS011;9226;47.858;9.594;2023-03-01T11:03:24;35.20;;;13.40;;
18200;SDS011;9226;47.858;9.594;2023-03-01T11:05:59;37.30;;;14.30;;
18200;SDS011;9226;47.858;9.594;2023-03-01T11:08:46;38.17;;;13.60;;
18200;SDS011;9226;47.858;9.594;2023-03-01T11:16:22;39.67;;;14.13;;
18200;SDS011;9226;47.858;9.594;2023-03-01T11:21:34;39.90;;;14.60;;
18200;SDS011;9226;47.858;9.594;2023-03-01T11:24:03;43.20;;;14.47;;
18200;SDS011;9226;47.858;9.594;2023-03-01T11:26:34;38.37;;;14.07;;
18200;SDS011;9226;47.858;9.594;2023-03-01T11:29:04;33.30;;;13.10;;
18200;SDS011;9226;47.858;9.594;2023-03-01T11:31:37;32.60;;;13.70;;
18200;SDS011;9226;47.858;9.594;2023-03-01T11:34:09;37.70;;;12.87;;
18200;SDS011;9226;47.858;9.594;2023-03-01T11:36:46;34.57;;;14.03;;
18200;SDS011;9226;47.858;9.594;2023-03-01T11:44:54;38.97;;;12.63;;
18200;SDS011;9226;47.858;9.594;2023-03-01T11:52:24;35.47;;;13.17;;
18200;SDS011;9226;47.858;9.594;2023-03-01T11:55:04;37.10;;;13.53;;
18200;SDS011;9226;47.858;9.594;2023-03-01T12:17:26;29.90;;;12.50;;
18200;SDS011;9226;47.858;9.594;2023-03-01T12:25:30;35.00;;;13.57;;
18200;SDS011;9226;47.858;9.594;2023-03-01T12:35:52;36.63;;;13.27;;
18200;SDS011;9226;47.858;9.594;2023-03-01T12:44:44;33.23;;;13.47;;
18200;SDS011;9226;47.858;9.594;2023-03-01T12:50:18;34.40;;;12.60;;
18200;SDS011;9226;47.858;9.594;2023-03-01T12:55:31;40.50;;;13.93;;
18200;SDS011;9226;47.858;9.594;2023-03-01T12:58:07;36.23;;;13.60;;
18200;SDS011;9226;47.858;9.594;2023-03-01T13:00:45;35.87;;;13.93;;
18200;SDS011;9226;47.858;9.594;2023-03-01T13:03:54;36.10;;;13.90;;
18200;SDS011;9226;47.858;9.594;2023-03-01T13:11:40;37.40;;;13.63;;
18200;SDS011;9226;47.858;9.594;2023-03-01T13:16:48;37.40;;;13.93;;
18200;SDS011;9226;47.858;9.594;2023-03-01T13:19:15;40.80;;;14.60;;
18200;SDS011;9226;47.858;9.594;2023-03-01T13:21:41;34.40;;;13.87;;
18200;SDS011;9226;47.858;9.594;2023-03-01T13:24:24;36.57;;;13.97;;
18200;SDS011;9226;47.858;9.594;2023-03-01T13:32:26;32.77;;;14.43;;
18200;SDS011;9226;47.858;9.594;2023-03-01T13:37:34;38.63;;;14.53;;
18200;SDS011;9226;47.858;9.594;2023-03-01T13:40:04;40.57;;;14.43;;
18200;SDS011;9226;47.858;9.594;2023-03-01T13:42:51;34.57;;;14.20;;
18200;SDS011;9226;47.858;9.594;2023-03-01T13:47:56;36.57;;;13.53;;
18200;SDS011;9226;47.858;9.594;2023-03-01T13:50:25;37.80;;;14.00;;
18200;SDS011;9226;47.858;9.594;2023-03-01T13:52:54;40.37;;;15.20;;
18200;SDS011;9226;47.858;9.594;2023-03-01T13:55:30;31.57;;;13.30;;
18200;SDS011;9226;47.858;9.594;2023-03-01T13:58:02;38.83;;;14.70;;
18200;SDS011;9226;47.858;9.594;2023-03-01T14:00:31;35.90;;;14.07;;
18200;SDS011;9226;47.858;9.594;2023-03-01T14:03:01;37.17;;;14.30;;
18200;SDS011;9226;47.858;9.594;2023-03-01T14:05:33;41.87;;;15.30;;
18200;SDS011;9226;47.858;9.594;2023-03-01T14:08:00;34.00;;;13.90;;
18200;SDS011;9226;47.858;9.594;2023-03-01T14:10:29;36.20;;;14.27;;
18200;SDS011;9226;47.858;9.594;2023-03-01T14:13:08;40.93;;;15.47;;
18200;SDS011;9226;47.858;9.594;2023-03-01T14:15:42;38.37;;;14.80;;
18200;SDS011;9226;47.858;9.594;2023-03-01T14:18:31;34.93;;;12.80;;
18200;SDS011;9226;47.858;9.594;2023-03-01T14:21:08;37.47;;;13.93;;
18200;SDS011;9226;47.858;9.594;2023-03-01T14:23:34;39.67;;;14.47;;
18200;SDS011;9226;47.858;9.594;2023-03-01T14:26:01;42.10;;;14.40;;
18200;SDS011;9226;47.858;9.594;2023-03-01T14:28:27;33.27;;;13.17;;
18200;SDS011;9226;47.858;9.594;2023-03-01T14:30:58;38.17;;;13.87;;
18200;SDS011;9226;47.858;9.594;2023-03-01T14:38:30;41.73;;;14.93;;
18200;SDS011;9226;47.858;9.594;2023-03-01T14:41:02;38.23;;;14.67;;
18200;SDS011;9226;47.858;9.594;2023-03-01T14:43:31;32.33;;;13.30;;
18200;SDS011;9226;47.858;9.594;2023-03-01T14:45:57;36.30;;;13.40;;
18200;SDS011;9226;47.858;9.594;2023-03-01T14:48:23;39.13;;;14.53;;
18200;SDS011;9226;47.858;9.594;2023-03-01T14:50:49;42.07;;;14.60;;
18200;SDS011;9226;47.858;9.594;2023-03-01T14:53:19;36.90;;;14.30;;
18200;SDS011;9226;47.858;9.594;2023-03-01T14:55:49;40.60;;;15.27;;
18200;SDS011;9226;47.858;9.594;2023-03-01T14:58:21;38.27;;;14.87;;
18200;SDS011;9226;47.858;9.594;2023-03-01T15:00:53;44.40;;;15.27;;
18200;SDS011;9226;47.858;9.594;2023-03-01T15:03:26;40.00;;;14.53;;
18200;SDS011;9226;47.858;9.594;2023-03-01T15:05:57;36.23;;;13.77;;
18200;SDS011;9226;47.858;9.594;2023-03-01T15:08:26;37.43;;;14.47;;
18200;SDS011;9226;47.858;9.594;2023-03-01T15:13:32;37.23;;;15.40;;
18200;SDS011;9226;47.858;9.594;2023-03-01T15:18:43;43.70;;;15.40;;
18200;SDS011;9226;47.858;9.594;2023-03-01T15:21:21;37.73;;;15.03;;
18200;SDS011;9226;47.858;9.594;2023-03-01T15:23:53;39.63;;;14.77;;
18200;SDS011;9226;47.858;9.594;2023-03-01T15:26:22;45.97;;;14.60;;
18200;SDS011;9226;47.858;9.594;2023-03-01T15:29:11;40.57;;;14.37;;
18200;SDS011;9226;47.858;9.594;2023-03-01T15:31:42;38.10;;;14.00;;
18200;SDS011;9226;47.858;9.594;2023-03-01T15:34:28;40.17;;;13.97;;
18200;SDS011;9226;47.858;9.594;2023-03-01T15:37:02;38.00;;;14.63;;
18200;SDS011;9226;47.858;9.594;2023-03-01T15:39:34;37.03;;;14.67;;
18200;SDS011;9226;47.858;9.594;2023-03-01T15:42:03;38.83;;;14.50;;
18200;SDS011;9226;47.858;9.594;2023-03-01T15:44:36;39.57;;;15.53;;
18200;SDS011;9226;47.858;9.594;2023-03-01T15:47:08;34.60;;;14.73;;
18200;SDS011;9226;47.858;9.594;2023-03-01T15:49:48;36.40;;;13.43;;
18200;SDS011;9226;47.858;9.594;2023-03-01T15:52:20;35.57;;;13.97;;
18200;SDS011;9226;47.858;9.594;2023-03-01T15:55:00;39.20;;;15.17;;
18200;SDS011;9226;47.858;9.594;2023-03-01T15:57:30;40.17;;;15.23;;
18200;SDS011;9226;47.858;9.594;2023-03-01T15:59:55;36.53;;;13.83;;
18200;SDS011;9226;47.858;9.594;2023-03-01T16:02:24;37.53;;;14.60;;
18200;SDS011;9226;47.858;9.594;2023-03-01T16:04:49;39.33;;;16.10;;
18200;SDS011;9226;47.858;9.594;2023-03-01T16:07:15;40.60;;;16.30;;
18200;SDS011;9226;47.858;9.594;2023-03-01T16:09:40;47.53;;;16.23;;
18200;SDS011;9226;47.858;9.594;2023-03-01T16:12:09;42.50;;;15.43;;
18200;SDS011;9226;47.858;9.594;2023-03-01T16:14:39;42.73;;;15.97;;
18200;SDS011;9226;47.858;9.594;2023-03-01T16:17:04;37.83;;;14.90;;
18200;SDS011;9226;47.858;9.594;2023-03-01T16:19:30;41.23;;;14.93;;
18200;SDS011;9226;47.858;9.594;2023-03-01T16:21:55;42.73;;;15.57;;
18200;SDS011;9226;47.858;9.594;2023-03-01T16:24:21;42.60;;;16.67;;
18200;SDS011;9226;47.858;9.594;2023-03-01T16:26:46;38.33;;;14.93;;
18200;SDS011;9226;47.858;9.594;2023-03-01T16:29:11;45.37;;;16.20;;
18200;SDS011;9226;47.858;9.594;2023-03-01T16:31:37;40.67;;;15.03;;
18200;SDS011;9226;47.858;9.594;2023-03-01T16:34:02;40.57;;;16.10;;
18200;SDS011;9226;47.858;9.594;2023-03-01T16:36:28;37.90;;;14.93;;
18200;SDS011;9226;47.858;9.594;2023-03-01T16:38:54;40.00;;;16.13;;
18200;SDS011;9226;47.858;9.594;2023-03-01T16:41:23;38.57;;;14.73;;
18200;SDS011;9226;47.858;9.594;2023-03-01T16:43:49;43.50;;;16.77;;
18200;SDS011;9226;47.858;9.594;2023-03-01T16:46:20;40.87;;;15.83;;
18200;SDS011;9226;47.858;9.594;2023-03-01T16:48:48;43.57;;;16.20;;